Aeroporto :
LOGIN :

Iscrizione | Disclaimer

   EN    FR    IT 

 










Sommario :    VFR   VFR Marginale   IFR   IFR Intensivo   IFR Molto Intensivo
Visibilità : 
Base nubi : 
>= 8 km
>= 3000ft
5 / 8 km
1000 / 3000 ft
1500m / 5 km
500 / 1000 ft
800 / 1500m
200 / 500 ft
< 800m
< 200 ft
Simboli :   Temporali  Nebbia  Neve Forte  Precipitazioni Forti  Vento > 20 kt
SIGMETs :   Varie  Temporali  Ghiacco  Turbolenza  Onda orograficha  Ceneri Vulcaniche






- Altitudine del aeroporto : 408 ft
- Codice IATA : FKB


EDSB - Karlsruhe Baden Baden

ULTIMO METAR :
  • 162150Z AUTO 02006KT 9999 NCD 20/14 Q1009

METARs OBSOLETI :
  • 162120Z AUTO 03005KT 9999 NCD 20/14 Q1009
  • 162050Z 02004KT CAVOK 20/14 Q1009
  • 162020Z 00000KT CAVOK 21/15 Q1009
  • 161950Z 03003KT CAVOK 22/15 Q1009
  • 161920Z 06004KT CAVOK 22/16 Q1009

TAF TAF EDSB
Valido dal 16 a 18 ore il 17 a 18 ore UTC


161700Z 1618/1718 VRB03KT CAVOK
PROB30
TEMPO 1705/1708 SHRA BKN050CB
BECMG 1709/1711 34005KT



MetMap, La meteo Aeronautica in un colpo d'occhio ! - Copyright ORBIFLY Dicembre 2007 - Disclaimer

ORBIFLY MET'MAP TEAM :

Programmazione e sviluppo : Alexandra Zaïnal
Concezione : Baudouin d'Aumeries
Supporto tecnico e logistico : Manuel Goepfert
Aiuto : Marc-Olivier Méhu
Aiuto per la traduzione : Arnaldo La Scala




FONTI E CREDITI :

   NOAA